Time;durP1;ratioP1;P1;durP2;ratioP2;P2;SDS_P1;SDS_P2;PMS_P1;PMS_P2;Temp;Humidity;BMP_temperature;BMP_pressure;BME280_temperature;BME280_humidity;BME280_pressure;Samples;Min_cycle;Max_cycle;Signal;HPM_P1;HPM_P2
2023/03/21 00:00:21;;;;;;;35.25;15.70;;;;;;;10.72;100.00;101563.28;6295841;22;20010;-68
2023/03/21 00:02:47;;;;;;;45.08;15.57;;;;;;;10.80;100.00;101566.44;6324445;22;20092;-69
2023/03/21 00:05:12;;;;;;;38.80;15.57;;;;;;;10.80;100.00;101562.91;6324173;22;20092;-67
2023/03/21 00:07:37;;;;;;;40.78;17.10;;;;;;;10.71;100.00;101564.25;6324067;22;20022;-69
2023/03/21 00:10:03;;;;;;;26.75;14.68;;;;;;;10.81;100.00;101568.16;6323868;22;20019;-70
2023/03/21 00:12:31;;;;;;;38.35;16.83;;;;;;;10.67;100.00;101559.16;6324539;22;20011;-68
2023/03/21 00:15:03;;;;;;;39.03;15.73;;;;;;;10.65;100.00;101564.56;6324299;22;20015;-68
2023/03/21 00:17:31;;;;;;;37.58;15.82;;;;;;;10.64;100.00;101562.81;6324263;22;20019;-68
2023/03/21 00:19:58;;;;;;;44.22;17.13;;;;;;;10.87;100.00;101557.16;6295918;22;20079;-69
2023/03/21 00:22:24;;;;;;;32.50;15.90;;;;;;;10.79;100.00;101542.47;6324416;22;20063;-68
2023/03/21 00:24:51;;;;;;;39.33;17.63;;;;;;;10.70;100.00;101546.53;6324090;22;20116;-67
2023/03/21 00:27:18;;;;;;;50.35;17.15;;;;;;;10.82;100.00;101545.00;6324654;22;20101;-71
2023/03/21 00:29:44;;;;;;;40.20;16.63;;;;;;;10.62;100.00;101543.38;6324477;22;20018;-71
2023/03/21 00:32:09;;;;;;;35.90;16.70;;;;;;;10.71;100.00;101550.03;6324359;22;20060;-68
2023/03/21 00:34:37;;;;;;;38.80;17.20;;;;;;;10.81;100.00;101540.63;6295333;22;20645;-71
2023/03/21 00:37:04;;;;;;;37.17;16.58;;;;;;;10.65;100.00;101534.38;6323033;22;20042;-66
2023/03/21 00:39:31;;;;;;;34.70;15.80;;;;;;;10.74;100.00;101539.19;6322909;22;20019;-70
2023/03/21 00:41:56;;;;;;;35.10;16.45;;;;;;;10.71;100.00;101534.91;6294613;22;20077;-70
2023/03/21 00:44:24;;;;;;;45.90;18.20;;;;;;;10.74;100.00;101540.06;6324213;22;20665;-71
2023/03/21 00:46:50;;;;;;;41.13;15.95;;;;;;;10.83;100.00;101528.03;6297233;22;20353;-69
2023/03/21 00:49:15;;;;;;;40.10;18.23;;;;;;;10.79;100.00;101529.13;6297346;22;20132;-71
2023/03/21 00:51:42;;;;;;;42.58;17.95;;;;;;;10.90;100.00;101526.78;6297839;22;20006;-69
2023/03/21 00:54:11;;;;;;;47.92;17.73;;;;;;;10.78;100.00;101524.75;6324133;22;20014;-70
2023/03/21 00:56:36;;;;;;;43.88;19.80;;;;;;;10.62;100.00;101524.72;6325822;22;20089;-68
2023/03/21 00:59:02;;;;;;;48.72;18.13;;;;;;;10.82;100.00;101521.84;6325004;22;20011;-71
2023/03/21 01:01:30;;;;;;;36.63;16.13;;;;;;;10.77;100.00;101521.22;6325164;22;20057;-68
2023/03/21 01:04:09;;;;;;;37.38;17.15;;;;;;;10.66;100.00;101520.94;6324782;22;20015;-69
2023/03/21 01:06:39;;;;;;;42.17;16.25;;;;;;;10.66;100.00;101520.09;6325518;22;20025;-70
2023/03/21 01:09:18;;;;;;;32.47;15.43;;;;;;;10.40;100.00;101516.97;6325846;22;20406;-68
2023/03/21 01:11:44;;;;;;;35.05;16.27;;;;;;;10.50;100.00;101526.22;6297663;22;20019;-70
2023/03/21 01:14:11;;;;;;;34.55;15.43;;;;;;;10.46;100.00;101511.31;6325134;22;20110;-70
2023/03/21 01:16:37;;;;;;;31.27;15.57;;;;;;;10.50;100.00;101512.88;6325103;22;20018;-70
2023/03/21 01:19:06;;;;;;;32.20;16.13;;;;;;;10.37;100.00;101506.47;6323735;22;20014;-69
2023/03/21 01:21:32;;;;;;;42.53;17.98;;;;;;;10.46;100.00;101510.47;6323500;22;20015;-70
2023/03/21 01:23:58;;;;;;;33.33;16.02;;;;;;;10.53;100.00;101504.72;6323720;22;20070;-69
2023/03/21 01:26:23;;;;;;;35.78;16.50;;;;;;;10.54;100.00;101502.91;6323588;22;20183;-70
2023/03/21 01:28:49;;;;;;;35.42;17.88;;;;;;;10.52;100.00;101492.31;6323410;22;20117;-68
2023/03/21 01:31:16;;;;;;;37.78;15.98;;;;;;;10.55;100.00;101501.97;6295892;22;20023;-68
2023/03/21 01:33:42;;;;;;;34.25;18.00;;;;;;;10.41;100.00;101499.19;6295832;22;20117;-70
2023/03/21 01:36:14;;;;;;;39.90;17.63;;;;;;;10.46;100.00;101495.31;6323193;22;20079;-70
2023/03/21 01:38:40;;;;;;;;;;;;;;;10.27;100.00;101495.41;6295528;22;20728;-70
2023/03/21 01:41:06;;;;;;;34.70;17.60;;;;;;;10.48;100.00;101497.91;6295600;22;20016;-70
2023/03/21 01:43:35;;;;;;;38.00;17.52;;;;;;;10.34;100.00;101491.50;6294992;22;20029;-69
2023/03/21 01:46:22;;;;;;;37.72;18.70;;;;;;;10.31;100.00;101491.66;6294273;22;20018;-69
2023/03/21 01:49:01;;;;;;;38.30;18.38;;;;;;;10.50;100.00;101493.38;6295301;22;20030;-69
2023/03/21 01:51:29;;;;;;;38.55;17.77;;;;;;;10.54;100.00;101476.25;6323151;22;20454;-69
2023/03/21 01:53:56;;;;;;;49.25;19.67;;;;;;;10.56;100.00;101485.91;6295915;22;20413;-68
2023/03/21 01:56:34;;;;;;;34.17;19.40;;;;;;;10.60;100.00;101484.78;6296394;22;20014;-69
2023/03/21 01:59:23;;;;;;;36.22;18.40;;;;;;;10.47;100.00;101475.72;6296063;22;20650;-68
2023/03/21 02:02:10;;;;;;;41.88;19.40;;;;;;;10.43;100.00;101475.94;6296643;22;20119;-69
2023/03/21 02:04:54;;;;;;;43.40;19.70;;;;;;;10.36;100.00;101468.28;6296015;22;20101;-69
2023/03/21 02:07:28;;;;;;;41.97;18.48;;;;;;;10.45;100.00;101471.41;6296374;22;20102;-69
2023/03/21 02:10:08;;;;;;;33.25;16.55;;;;;;;10.49;100.00;101464.94;6296038;22;20075;-69
2023/03/21 02:12:34;;;;;;;32.07;17.03;;;;;;;10.35;100.00;101468.38;6296389;22;20010;-69
2023/03/21 02:15:00;;;;;;;39.40;18.35;;;;;;;10.42;100.00;101458.22;6296018;22;20072;-70
2023/03/21 02:17:58;;;;;;;41.13;18.20;;;;;;;10.38;100.00;101454.84;6296739;22;20539;-69
2023/03/21 02:21:10;;;;;;;33.45;17.15;;;;;;;10.28;100.00;101458.94;6297102;22;20030;-68
2023/03/21 02:24:02;;;;;;;36.72;15.80;;;;;;;10.28;100.00;101446.47;6296681;22;20401;-67
2023/03/21 02:27:02;;;;;;;32.70;16.48;;;;;;;10.27;100.00;101449.25;6296904;22;20018;-69
2023/03/21 02:29:37;;;;;;;31.20;16.98;;;;;;;10.42;100.00;101451.09;6296815;22;20692;-68
2023/03/21 02:32:13;;;;;;;35.53;19.17;;;;;;;10.29;100.00;101447.34;6296687;22;20046;-70
2023/03/21 02:35:17;;;;;;;46.10;18.70;;;;;;;10.42;100.00;101437.75;6324642;22;20014;-68
2023/03/21 02:37:58;;;;;;;43.15;20.63;;;;;;;10.31;100.00;101432.16;6233354;22;20784;-69
2023/03/21 02:41:00;;;;;;;40.25;21.17;;;;;;;10.25;100.00;101436.00;6324095;22;20054;-69
2023/03/21 02:43:45;;;;;;;41.95;20.45;;;;;;;10.34;100.00;101434.63;6297113;22;20018;-70
2023/03/21 02:46:19;;;;;;;43.60;20.02;;;;;;;10.45;100.00;101424.28;6297050;22;20029;-69
2023/03/21 02:48:55;;;;;;;40.25;19.67;;;;;;;10.32;100.00;101421.38;6296894;22;20817;-69
2023/03/21 02:51:23;;;;;;;44.85;20.90;;;;;;;10.40;100.00;101422.81;6324930;22;20056;-68
2023/03/21 02:53:58;;;;;;;39.17;20.30;;;;;;;10.35;100.00;101420.38;6296567;22;20395;-68
2023/03/21 02:56:24;;;;;;;43.35;19.15;;;;;;;10.44;100.00;101417.22;6324949;22;20019;-69
2023/03/21 02:58:53;;;;;;;44.55;19.83;;;;;;;10.42;100.00;101416.44;6296178;22;20015;-69
2023/03/21 03:01:19;;;;;;;52.58;20.05;;;;;;;10.57;100.00;101409.41;6296424;22;20018;-69
2023/03/21 03:03:47;;;;;;;47.35;20.92;;;;;;;10.26;100.00;101407.53;6296738;22;20049;-71
2023/03/21 03:06:18;;;;;;;53.35;21.02;;;;;;;10.45;100.00;101408.28;6296948;22;20015;-69
2023/03/21 03:09:03;;;;;;;34.05;17.40;;;;;;;10.44;100.00;101411.00;6296727;22;20018;-71
2023/03/21 03:11:36;;;;;;;42.78;19.70;;;;;;;10.47;100.00;101403.72;6296811;22;20018;-71
2023/03/21 03:14:41;;;;;;;41.97;18.48;;;;;;;10.43;100.00;101395.97;6296286;22;20654;-71
2023/03/21 03:17:18;;;;;;;38.03;17.88;;;;;;;10.49;100.00;101407.19;6297160;22;20018;-69
2023/03/21 03:20:09;;;;;;;37.85;17.67;;;;;;;10.37;100.00;101402.50;6324114;22;20333;-70
2023/03/21 03:22:46;;;;;;;43.25;18.30;;;;;;;10.45;100.00;101402.94;6295620;22;20072;-68
2023/03/21 03:25:17;;;;;;;36.05;17.27;;;;;;;10.51;100.00;101407.09;6324117;22;20111;-68
2023/03/21 03:27:45;;;;;;;35.65;17.95;;;;;;;10.45;100.00;101402.94;6296154;22;20091;-69
2023/03/21 03:30:12;;;;;;;34.08;16.77;;;;;;;10.58;100.00;101406.66;6296419;22;20022;-68
2023/03/21 03:32:46;;;;;;;36.38;16.92;;;;;;;10.47;100.00;101410.84;6296242;22;20015;-68
2023/03/21 03:35:16;;;;;;;39.35;17.92;;;;;;;10.46;100.00;101406.47;6324633;22;20021;-69
2023/03/21 03:37:44;;;;;;;35.63;16.50;;;;;;;10.57;100.00;101404.94;6323916;22;20017;-69
2023/03/21 03:40:28;;;;;;;37.65;16.80;;;;;;;10.40;100.00;101405.00;6295414;22;20027;-69
2023/03/21 03:43:12;;;;;;;39.95;17.08;;;;;;;10.54;100.00;101402.47;6295792;22;20551;-68
2023/03/21 03:45:47;;;;;;;41.30;17.52;;;;;;;10.60;100.00;101404.78;6296023;22;20015;-68
2023/03/21 03:48:21;;;;;;;36.10;16.70;;;;;;;10.55;100.00;101409.50;6296402;22;20018;-69
2023/03/21 03:51:01;;;;;;;38.45;15.80;;;;;;;10.48;100.00;101400.09;6324194;22;20021;-68
2023/03/21 03:53:49;;;;;;;38.97;17.73;;;;;;;10.43;100.00;101396.81;6296171;22;20054;-68
2023/03/21 03:56:15;;;;;;;41.72;17.02;;;;;;;10.42;100.00;101400.44;6295996;22;20026;-69
2023/03/21 03:58:41;;;;;;;44.80;17.27;;;;;;;10.30;100.00;101401.09;6296273;22;20015;-69
2023/03/21 04:01:07;;;;;;;46.00;17.20;;;;;;;10.49;100.00;101408.97;6296159;22;20022;-68
2023/03/21 04:03:36;;;;;;;32.17;15.30;;;;;;;10.44;100.00;101403.91;6296678;22;20006;-67
2023/03/21 04:06:06;;;;;;;34.42;14.70;;;;;;;10.19;100.00;101404.31;6296096;22;20039;-69
2023/03/21 04:08:31;;;;;;;43.97;15.90;;;;;;;10.43;100.00;101403.97;6295994;22;20078;-68
2023/03/21 04:10:57;;;;;;;43.30;18.10;;;;;;;10.51;100.00;101396.41;6270181;22;20019;-68
2023/03/21 04:13:23;;;;;;;39.08;17.63;;;;;;;10.49;100.00;101393.84;6296023;22;20030;-69
2023/03/21 04:16:08;;;;;;;41.13;18.42;;;;;;;10.43;100.00;101395.97;6296370;22;20018;-70
2023/03/21 04:18:33;;;;;;;35.78;16.17;;;;;;;10.45;100.00;101384.28;6296674;22;20023;-70
2023/03/21 04:21:00;;;;;;;31.80;14.68;;;;;;;10.23;100.00;101394.31;6298601;22;20754;-70
2023/03/21 04:23:28;;;;;;;38.78;14.85;;;;;;;10.24;100.00;101390.75;6326956;22;20009;-69
2023/03/21 04:25:54;;;;;;;39.17;15.43;;;;;;;10.13;100.00;101389.47;6326637;22;20021;-69
2023/03/21 04:28:20;;;;;;;40.30;14.82;;;;;;;10.31;100.00;101392.16;6298556;22;20023;-69
2023/03/21 04:31:16;;;;;;;29.67;14.00;;;;;;;10.38;100.00;101390.88;6298961;22;20011;-70
2023/03/21 04:33:46;;;;;;;41.55;14.63;;;;;;;10.42;100.00;101383.59;6298434;22;20014;-70
2023/03/21 04:36:23;;;;;;;32.30;14.98;;;;;;;10.28;100.00;101389.66;6298262;22;20613;-70
2023/03/21 04:38:50;;;;;;;31.67;14.80;;;;;;;10.25;100.00;101382.69;6298143;22;20376;-68
2023/03/21 04:41:16;;;;;;;40.92;15.68;;;;;;;10.29;100.00;101378.94;6298241;22;20025;-70
2023/03/21 04:43:41;;;;;;;30.77;13.95;;;;;;;10.30;100.00;101377.13;6297688;22;20050;-70
2023/03/21 04:46:07;;;;;;;33.67;13.88;;;;;;;10.39;100.00;101376.59;6297970;22;20099;-70
2023/03/21 04:48:32;;;;;;;30.45;13.65;;;;;;;10.29;100.00;101372.69;6325286;22;20015;-70
2023/03/21 04:50:59;;;;;;;44.40;14.45;;;;;;;10.36;100.00;101376.78;6297165;22;20591;-69
2023/03/21 04:53:27;;;;;;;31.90;13.38;;;;;;;10.37;100.00;101370.50;6296899;22;20032;-70
2023/03/21 04:55:52;;;;;;;32.17;13.10;;;;;;;10.37;100.00;101362.50;6296935;22;20460;-70
2023/03/21 04:58:19;;;;;;;34.95;13.98;;;;;;;10.32;100.00;101360.09;6324475;22;20113;-70
2023/03/21 05:00:45;;;;;;;31.63;12.23;;;;;;;10.20;100.00;101359.88;6296747;22;20011;-69
2023/03/21 05:03:18;;;;;;;29.65;14.68;;;;;;;10.28;100.00;101361.19;6324885;22;20116;-70
2023/03/21 05:05:44;;;;;;;36.55;14.40;;;;;;;10.41;100.00;101361.41;6298291;22;20092;-70
2023/03/21 05:08:10;;;;;;;39.90;14.45;;;;;;;10.38;100.00;101353.56;6325645;22;20518;-69
2023/03/21 05:10:35;;;;;;;32.58;13.77;;;;;;;10.38;100.00;101358.88;6325368;22;20015;-70
2023/03/21 05:13:01;;;;;;;40.00;14.60;;;;;;;10.29;100.00;101362.94;6272671;22;20038;-70
2023/03/21 05:15:26;;;;;;;33.30;13.88;;;;;;;10.29;100.00;101364.72;6297188;22;20022;-70
2023/03/21 05:17:52;;;;;;;29.48;13.60;;;;;;;10.23;100.00;101362.34;6297327;22;20015;-67
2023/03/21 05:20:18;;;;;;;30.50;14.00;;;;;;;10.14;100.00;101358.38;6271324;22;20114;-70
2023/03/21 05:22:45;;;;;;;34.78;13.55;;;;;;;10.13;100.00;101359.31;6297424;22;20026;-70
2023/03/21 05:25:12;;;;;;;54.25;16.33;;;;;;;10.18;100.00;101359.91;6271786;22;20014;-69
2023/03/21 05:27:53;;;;;;;33.90;14.68;;;;;;;10.09;100.00;101355.06;6297606;22;20023;-69
2023/03/21 05:30:20;;;;;;;37.30;14.98;;;;;;;10.19;100.00;101358.13;6272208;22;20497;-69
2023/03/21 05:32:48;;;;;;;31.15;14.77;;;;;;;10.07;100.00;101355.16;6297232;22;20017;-71
2023/03/21 05:35:14;;;;;;;34.53;13.93;;;;;;;10.27;100.00;101362.13;6326058;22;20401;-69
2023/03/21 05:37:40;;;;;;;34.85;15.32;;;;;;;10.23;100.00;101365.00;6271391;22;20018;-70
2023/03/21 05:40:06;;;;;;;35.00;14.32;;;;;;;10.24;100.00;101370.31;6297097;22;20110;-70
2023/03/21 05:42:33;;;;;;;31.85;14.98;;;;;;;10.11;100.00;101366.53;6296997;22;20019;-70
2023/03/21 05:45:01;;;;;;;39.20;14.65;;;;;;;10.01;100.00;101374.16;6297686;22;20093;-70
2023/03/21 05:47:30;;;;;;;37.33;14.52;;;;;;;10.01;100.00;101366.16;6296835;22;20033;-70
2023/03/21 05:49:57;;;;;;;49.85;16.52;;;;;;;10.08;100.00;101367.53;6297405;22;20018;-70
2023/03/21 05:52:23;;;;;;;34.58;13.55;;;;;;;10.11;100.00;101369.19;6297032;22;20015;-70
2023/03/21 05:54:49;;;;;;;34.65;14.50;;;;;;;10.05;100.00;101365.06;6297087;22;20101;-70
2023/03/21 05:57:18;;;;;;;36.25;13.52;;;;;;;9.99;100.00;101360.06;6271249;22;20760;-69
2023/03/21 06:00:01;;;;;;;;;;;;;;;10.10;100.00;101359.50;6297824;22;20060;-70
2023/03/21 06:02:31;;;;;;;28.40;13.60;;;;;;;10.17;100.00;101357.34;6296507;22;20013;-70
2023/03/21 06:05:01;;;;;;;38.80;13.05;;;;;;;10.16;100.00;101345.84;6296943;22;20027;-69
2023/03/21 06:07:26;;;;;;;30.75;13.63;;;;;;;10.13;100.00;101351.31;6324828;22;20006;-70
2023/03/21 06:09:52;;;;;;;39.50;13.57;;;;;;;10.33;100.00;101352.94;6297158;22;20017;-69
2023/03/21 06:12:17;;;;;;;35.58;12.85;;;;;;;10.11;100.00;101346.06;6297322;22;20029;-69
2023/03/21 06:15:05;;;;;;;37.42;14.55;;;;;;;10.45;100.00;101340.78;6325842;22;20030;-81
2023/03/21 06:17:34;;;;;;;34.92;13.32;;;;;;;10.34;100.00;101344.00;6301245;22;20763;-80
2023/03/21 06:20:05;;;;;;;34.90;13.80;;;;;;;10.47;100.00;101338.88;6300654;22;20069;-82
2023/03/21 06:22:45;;;;;;;32.78;12.25;;;;;;;10.41;100.00;101344.53;6277340;22;20015;-81
2023/03/21 06:25:11;;;;;;;33.42;12.40;;;;;;;10.46;100.00;101335.34;6328572;22;20603;-80
2023/03/21 06:27:36;;;;;;;36.88;13.55;;;;;;;10.54;100.00;101341.13;6299839;22;20053;-80
2023/03/21 06:30:04;;;;;;;32.15;13.55;;;;;;;10.51;100.00;101329.75;6300658;22;20042;-81
2023/03/21 06:32:35;;;;;;;28.60;13.43;;;;;;;10.47;100.00;101334.38;6300756;22;20030;-79
2023/03/21 06:35:08;;;;;;;41.40;13.45;;;;;;;10.46;100.00;101343.34;6278465;22;20080;-80
2023/03/21 06:37:34;;;;;;;35.92;12.20;;;;;;;10.56;100.00;101341.03;6300978;22;20019;-81
2023/03/21 06:40:00;;;;;;;30.58;12.82;;;;;;;10.45;100.00;101338.97;6301533;22;20019;-79
2023/03/21 06:42:26;;;;;;;33.83;13.05;;;;;;;10.50;100.00;101336.91;6300981;22;20011;-82
2023/03/21 06:44:57;;;;;;;32.25;13.30;;;;;;;10.56;100.00;101338.38;6301742;22;20019;-79
2023/03/21 06:47:25;;;;;;;25.73;11.80;;;;;;;10.47;100.00;101337.06;6329117;22;20073;-80
2023/03/21 06:49:51;;;;;;;33.22;13.32;;;;;;;10.55;100.00;101328.66;6302348;22;20027;-81
2023/03/21 06:52:16;;;;;;;37.03;13.60;;;;;;;10.64;100.00;101338.78;6301957;22;20026;-80
2023/03/21 06:54:42;;;;;;;33.47;12.98;;;;;;;10.84;100.00;101341.22;6300524;22;20015;-82
2023/03/21 06:57:10;;;;;;;34.47;13.02;;;;;;;10.68;100.00;101335.00;6301069;22;20373;-81
2023/03/21 06:59:36;;;;;;;35.58;13.60;;;;;;;10.81;100.00;101333.38;6301993;22;20057;-79
2023/03/21 07:02:05;;;;;;;35.67;13.63;;;;;;;10.81;100.00;101341.38;6301656;22;20102;-81
2023/03/21 07:04:38;;;;;;;28.92;12.25;;;;;;;10.80;100.00;101345.00;6300885;22;20042;-82
2023/03/21 07:07:09;;;;;;;32.95;12.73;;;;;;;11.03;100.00;101335.69;6301852;22;20423;-82
2023/03/21 07:09:35;;;;;;;30.08;12.50;;;;;;;10.96;100.00;101337.00;6301148;22;20019;-80
2023/03/21 07:12:03;;;;;;;27.67;12.57;;;;;;;11.18;100.00;101338.41;6302478;22;20720;-82
2023/03/21 07:14:42;;;;;;;31.10;12.70;;;;;;;11.30;100.00;101335.91;6299564;22;20088;-79
2023/03/21 07:17:07;;;;;;;31.33;13.07;;;;;;;11.32;100.00;101336.66;6300435;22;20014;-81
2023/03/21 07:19:33;;;;;;;27.98;11.57;;;;;;;11.06;100.00;101334.66;6329324;22;20019;-81
2023/03/21 07:22:00;;;;;;;34.15;13.45;;;;;;;11.38;100.00;101336.28;6301379;22;20022;-79
2023/03/21 07:24:27;;;;;;;27.08;12.25;;;;;;;11.48;100.00;101333.94;6300722;22;20108;-80
2023/03/21 07:26:52;;;;;;;25.88;12.07;;;;;;;11.61;100.00;101331.41;6301945;22;20100;-79
2023/03/21 07:29:20;;;;;;;28.80;12.65;;;;;;;11.65;100.00;101327.63;6301898;22;20117;-81
2023/03/21 07:31:46;;;;;;;31.40;12.35;;;;;;;11.61;100.00;101326.06;6300270;22;20018;-80
2023/03/21 07:34:11;;;;;;;26.05;11.00;;;;;;;11.71;100.00;101319.22;6299654;22;20172;-82
2023/03/21 07:36:37;;;;;;;24.13;11.93;;;;;;;11.63;100.00;101322.34;6300121;22;20061;-80
2023/03/21 07:39:03;;;;;;;32.47;10.73;;;;;;;11.68;100.00;101325.59;6300882;22;20346;-80
2023/03/21 07:41:29;;;;;;;25.75;10.43;;;;;;;11.74;100.00;101321.69;6327732;22;20040;-80
2023/03/21 07:44:06;;;;;;;22.80;10.40;;;;;;;11.68;100.00;101327.41;6276546;22;20026;-80
2023/03/21 07:46:32;;;;;;;23.20;10.88;;;;;;;11.66;100.00;101327.50;6300730;22;20014;-79
2023/03/21 07:48:58;;;;;;;26.40;11.70;;;;;;;12.08;100.00;101314.31;6328975;22;20017;-80
2023/03/21 07:51:23;;;;;;;29.75;12.35;;;;;;;12.22;100.00;101321.50;6275188;22;20022;-81
2023/03/21 07:53:49;;;;;;;28.63;10.55;;;;;;;12.00;100.00;101328.19;6326784;22;20065;-80
2023/03/21 07:56:14;;;;;;;27.60;10.43;;;;;;;12.19;100.00;101319.84;6301818;22;20028;-80
2023/03/21 07:58:40;;;;;;;23.90;10.77;;;;;;;12.31;100.00;101321.78;6301665;22;20437;-80
2023/03/21 08:01:05;;;;;;;23.90;10.07;;;;;;;12.17;100.00;101330.66;6301474;22;20026;-80
2023/03/21 08:03:32;;;;;;;22.02;9.82;;;;;;;12.17;100.00;101325.31;6330112;22;20097;-81
2023/03/21 08:06:00;;;;;;;23.60;10.73;;;;;;;12.19;100.00;101333.22;6329078;22;20015;-81
2023/03/21 08:08:25;;;;;;;24.98;9.35;;;;;;;11.90;100.00;101332.38;6300776;22;20010;-82
2023/03/21 08:10:51;;;;;;;26.90;11.45;;;;;;;11.97;100.00;101333.69;6328563;22;20011;-79
2023/03/21 08:13:16;;;;;;;25.42;11.07;;;;;;;11.83;100.00;101349.72;6329369;22;20095;-80
2023/03/21 08:15:42;;;;;;;29.08;11.18;;;;;;;11.96;100.00;101339.16;6328191;22;20018;-80
2023/03/21 08:18:09;;;;;;;21.80;9.40;;;;;;;11.49;100.00;101351.69;6301225;22;20353;-80
2023/03/21 08:20:35;;;;;;;19.77;10.57;;;;;;;11.69;100.00;101347.81;6329248;22;20379;-79
2023/03/21 08:23:00;;;;;;;33.47;11.98;;;;;;;11.53;100.00;101352.38;6300637;22;20019;-80
2023/03/21 08:25:25;;;;;;;30.88;11.60;;;;;;;11.57;100.00;101352.09;6329082;22;20010;-79
2023/03/21 08:27:51;;;;;;;28.45;10.00;;;;;;;11.29;100.00;101347.50;6327259;22;20027;-81
2023/03/21 08:30:20;;;;;;;33.95;12.30;;;;;;;11.50;100.00;101349.91;6327360;22;20014;-81
2023/03/21 08:32:46;;;;;;;24.40;9.90;;;;;;;11.31;100.00;101347.44;6327128;22;20532;-81
2023/03/21 08:35:14;;;;;;;28.45;10.50;;;;;;;11.39;100.00;101343.34;6326916;22;20014;-81
2023/03/21 08:37:40;;;;;;;22.83;10.43;;;;;;;11.54;100.00;101338.91;6326928;22;20085;-81
2023/03/21 08:40:10;;;;;;;25.33;9.38;;;;;;;11.44;100.00;101336.88;6327152;22;20073;-84
2023/03/21 08:42:37;;;;;;;30.42;10.32;;;;;;;11.68;100.00;101346.97;6327732;22;20015;-80
2023/03/21 08:45:03;;;;;;;23.88;9.50;;;;;;;11.59;100.00;101336.84;6299555;22;20015;-80
2023/03/21 08:47:29;;;;;;;28.05;11.52;;;;;;;11.81;100.00;101332.88;6327419;22;20022;-80
2023/03/21 08:49:56;;;;;;;29.00;12.07;;;;;;;11.77;100.00;101326.00;6327366;22;20019;-79
2023/03/21 08:52:21;;;;;;;25.25;10.73;;;;;;;11.48;100.00;101333.09;6326096;22;20499;-82
2023/03/21 08:54:47;;;;;;;25.05;12.45;;;;;;;11.79;100.00;101329.44;6326765;22;20015;-81
2023/03/21 08:57:13;;;;;;;31.55;13.48;;;;;;;11.99;100.00;101321.09;6327008;22;20022;-81
2023/03/21 08:59:39;;;;;;;25.00;11.70;;;;;;;11.97;100.00;101317.66;6327053;22;20376;-80
2023/03/21 09:02:06;;;;;;;21.25;9.77;;;;;;;12.13;100.00;101315.75;6327268;22;20014;-80
2023/03/21 09:04:31;;;;;;;23.40;10.05;;;;;;;12.26;100.00;101309.66;6326670;22;20015;-82
2023/03/21 09:07:00;;;;;;;29.83;10.70;;;;;;;12.24;100.00;101316.91;6327644;22;20019;-81
2023/03/21 09:09:28;;;;;;;20.02;9.48;;;;;;;12.14;100.00;101313.94;6329620;22;20606;-80
2023/03/21 09:11:55;;;;;;;19.13;9.35;;;;;;;12.37;100.00;101310.69;6330091;22;20030;-83
2023/03/21 09:14:20;;;;;;;27.73;11.00;;;;;;;12.47;100.00;101310.97;6330133;22;20611;-81
2023/03/21 09:16:46;;;;;;;28.02;10.02;;;;;;;12.63;100.00;101305.47;6301701;22;20011;-81
2023/03/21 09:19:11;;;;;;;24.42;9.85;;;;;;;12.71;100.00;101308.53;6328421;22;20010;-82
2023/03/21 09:21:37;;;;;;;30.40;11.00;;;;;;;12.50;100.00;101299.19;6328680;22;20015;-81
2023/03/21 09:24:05;;;;;;;19.00;9.18;;;;;;;12.69;100.00;101303.25;6329662;22;20015;-82
2023/03/21 09:26:31;;;;;;;26.33;9.88;;;;;;;12.62;100.00;101295.75;6329511;22;20014;-80
2023/03/21 09:28:57;;;;;;;23.42;9.32;;;;;;;12.70;100.00;101301.44;6330109;22;20010;-81
2023/03/21 09:31:24;;;;;;;16.25;10.13;;;;;;;12.62;100.00;101301.94;6301468;22;20224;-80
2023/03/21 09:33:52;;;;;;;25.30;9.63;;;;;;;12.93;100.00;101298.13;6302073;22;20034;-80
2023/03/21 09:36:20;;;;;;;26.52;10.07;;;;;;;12.89;100.00;101295.75;6275400;22;20744;-80
2023/03/21 09:38:47;;;;;;;19.73;9.40;;;;;;;13.25;100.00;101294.28;6329849;22;20023;-80
2023/03/21 09:41:22;;;;;;;21.70;8.38;;;;;;;12.95;100.00;101293.56;6329017;22;20088;-80
2023/03/21 09:44:25;;;;;;;19.77;9.00;;;;;;;13.19;100.00;101287.50;6275061;22;20022;-82
2023/03/21 09:46:53;;;;;;;;;;;;;;;13.26;100.00;101288.00;6329131;22;20007;-79
2023/03/21 09:49:24;;;;;;;17.50;8.95;;;;;;;12.97;100.00;101280.06;6329470;22;20401;-80
2023/03/21 09:51:52;;;;;;;19.08;10.48;;;;;;;12.93;100.00;101284.75;6328605;22;20058;-81
2023/03/21 09:54:25;;;;;;;18.85;9.45;;;;;;;12.98;100.00;101281.75;6301149;22;20061;-82
2023/03/21 09:56:55;;;;;;;19.70;8.88;;;;;;;12.61;100.00;101276.16;6329732;22;20018;-81
2023/03/21 09:59:36;;;;;;;19.00;8.45;;;;;;;12.83;100.00;101274.75;6302470;22;20011;-80
2023/03/21 10:02:34;;;;;;;26.52;8.90;;;;;;;12.95;100.00;101272.13;6302104;22;20026;-81
2023/03/21 10:05:01;;;;;;;21.20;8.65;;;;;;;12.92;100.00;101268.78;6314730;22;20392;-79
2023/03/21 10:07:30;;;;;;;19.35;8.35;;;;;;;13.03;100.00;101263.56;6331700;22;20007;-82
2023/03/21 10:09:58;;;;;;;26.65;9.93;;;;;;;12.62;100.00;101263.63;6330437;22;20015;-82
2023/03/21 10:12:29;;;;;;;19.80;9.38;;;;;;;12.51;100.00;101258.13;6330143;22;20453;-80
2023/03/21 10:14:57;;;;;;;20.30;8.35;;;;;;;12.75;100.00;101256.53;6330202;22;20022;-80
2023/03/21 10:17:32;;;;;;;23.13;10.25;;;;;;;12.86;100.00;101255.81;6331579;22;20011;-81
2023/03/21 10:20:15;;;;;;;16.80;8.25;;;;;;;13.03;100.00;101255.53;6330973;22;20018;-79
2023/03/21 10:22:42;;;;;;;15.13;7.93;;;;;;;13.44;100.00;101241.19;6331081;22;20015;-81
2023/03/21 10:25:14;;;;;;;16.73;7.95;;;;;;;13.33;100.00;101233.03;6331277;22;20015;-81
2023/03/21 10:27:40;;;;;;;;;;;;;;;13.37;100.00;101223.84;6332337;22;20079;-80
2023/03/21 10:30:07;;;;;;;19.73;7.53;;;;;;;13.37;100.00;101222.00;6331118;22;20615;-81
2023/03/21 10:32:38;;;;;;;13.82;7.65;;;;;;;13.50;100.00;101222.00;6331667;22;20145;-80
2023/03/21 10:35:04;;;;;;;18.33;7.68;;;;;;;13.90;100.00;101212.00;6332223;22;20638;-79
2023/03/21 10:37:31;;;;;;;11.27;6.63;;;;;;;13.69;100.00;101202.81;6332672;22;20188;-81
2023/03/21 10:39:57;;;;;;;16.58;8.13;;;;;;;13.83;100.00;101204.53;6308161;22;20508;-82
2023/03/21 10:42:28;;;;;;;15.50;7.95;;;;;;;14.26;100.00;101199.63;6334844;22;20015;-81
2023/03/21 10:44:56;;;;;;;17.60;7.53;;;;;;;14.38;100.00;101193.34;6334842;22;20083;-80
2023/03/21 10:47:32;;;;;;;16.42;7.85;;;;;;;14.52;100.00;101192.34;6304863;22;20105;-81
2023/03/21 10:50:04;;;;;;;15.63;8.02;;;;;;;14.29;100.00;101188.63;6333249;22;20019;-81
2023/03/21 10:52:32;;;;;;;16.02;7.75;;;;;;;14.29;100.00;101195.84;6333121;22;20046;-80
2023/03/21 10:55:17;;;;;;;19.50;8.90;;;;;;;14.47;100.00;101197.19;6333677;22;20493;-81
2023/03/21 10:57:45;;;;;;;17.35;7.88;;;;;;;14.27;100.00;101185.22;6333744;22;20014;-80
2023/03/21 11:00:20;;;;;;;12.35;7.90;;;;;;;14.38;100.00;101182.59;6332441;22;20015;-80
2023/03/21 11:02:50;;;;;;;15.20;7.05;;;;;;;14.30;100.00;101184.97;6332172;22;20096;-79
2023/03/21 11:05:21;;;;;;;15.43;7.32;;;;;;;14.77;100.00;101186.88;6278698;22;20026;-80
2023/03/21 11:08:10;;;;;;;21.17;7.30;;;;;;;14.75;100.00;101180.72;6332082;22;20019;-80
2023/03/21 11:10:47;;;;;;;18.08;7.93;;;;;;;15.04;100.00;101169.63;6333256;22;20097;-80
2023/03/21 11:13:22;;;;;;;14.23;6.90;;;;;;;14.66;100.00;101181.44;6334352;22;20015;-81
2023/03/21 11:16:04;;;;;;;15.45;6.47;;;;;;;15.32;100.00;101178.25;6334186;22;20049;-79
2023/03/21 11:18:34;;;;;;;15.73;7.20;;;;;;;15.28;100.00;101177.59;6305956;22;20018;-80